Detroit, Michigan
Current Conditions -  °F | °C
As of 10:00 PM on Monday 20 Oct 2014 (Local Time) from CYQG Reporting Station
Overcast Overcast  
Wind Chill: 54°   Ceiling: 6200
Heat Index: 54°   Visibility: 12mi
Dew Point: 50°   Wind: 10mph
Humidity: 88%   Direction: 290°WNW
Pressure: 29.84"   Gusts: NA
Location:  42.33°N, 83.05°W
Report Text: CYQG 210200Z 29009KT 12SM SCT039 OVC062 12/10 A2984 RMK SC4SC4 SLP108
Loading
Personal Weather Stations






























Interactive Weather Map
Tropical Storm Tracking
New forecast layout! Learn more

10-Day Weather Forecast

Advertisements
Track Severe Weather on mobile